createdAt,value
2022-12-31T00:01:51.316Z,82.31
2022-12-31T00:04:18.341Z,82.17
2022-12-31T00:06:46.052Z,82.21
2022-12-31T00:09:12.867Z,82.19
2022-12-31T00:11:40.252Z,82.50
2022-12-31T00:14:07.331Z,82.49
2022-12-31T00:16:37.549Z,82.27
2022-12-31T00:19:06.097Z,82.29
2022-12-31T00:21:34.187Z,82.18
2022-12-31T00:24:02.448Z,82.46
2022-12-31T00:26:31.777Z,82.45
2022-12-31T00:29:00.453Z,82.35
2022-12-31T00:31:30.441Z,81.94
2022-12-31T00:33:57.900Z,82.27
2022-12-31T00:36:26.024Z,82.41
2022-12-31T00:38:54.434Z,82.42
2022-12-31T00:41:22.685Z,82.57
2022-12-31T00:43:49.687Z,82.37
2022-12-31T00:46:16.767Z,82.38
2022-12-31T00:48:44.090Z,82.47
2022-12-31T00:51:13.287Z,82.33
2022-12-31T00:53:39.997Z,82.15
2022-12-31T00:56:12.423Z,82.28
2022-12-31T00:58:39.558Z,82.42
2022-12-31T01:01:16.569Z,82.36
2022-12-31T01:03:43.847Z,81.99
2022-12-31T01:06:11.387Z,82.09
2022-12-31T01:08:38.141Z,81.80
2022-12-31T01:11:22.794Z,81.64
2022-12-31T01:13:52.024Z,81.69
2022-12-31T01:16:22.142Z,81.74
2022-12-31T01:18:49.269Z,81.48
2022-12-31T01:21:16.893Z,81.45
2022-12-31T01:23:43.888Z,81.83
2022-12-31T01:26:12.770Z,81.60
2022-12-31T01:28:39.603Z,81.61
2022-12-31T01:31:12.811Z,81.43
2022-12-31T01:33:40.045Z,81.36
2022-12-31T01:36:25.557Z,81.49
2022-12-31T01:38:54.245Z,81.99
2022-12-31T01:41:24.113Z,81.93
2022-12-31T01:43:57.280Z,81.63
2022-12-31T01:46:23.963Z,81.59
2022-12-31T01:48:55.252Z,81.45
2022-12-31T01:51:23.054Z,81.42
2022-12-31T01:53:50.627Z,81.52
2022-12-31T01:56:20.106Z,81.53
2022-12-31T01:58:51.518Z,81.60
2022-12-31T02:01:27.847Z,82.02
2022-12-31T02:03:56.607Z,82.43
2022-12-31T02:06:33.687Z,82.19
2022-12-31T02:09:00.970Z,81.75
2022-12-31T02:11:36.589Z,81.63
2022-12-31T02:14:09.856Z,81.58
2022-12-31T02:16:52.412Z,81.66
2022-12-31T02:19:43.978Z,81.57
2022-12-31T02:22:35.099Z,81.57
2022-12-31T02:25:10.754Z,81.76
2022-12-31T02:28:08.022Z,81.90
2022-12-31T02:30:36.385Z,82.19
2022-12-31T02:33:06.012Z,82.60
2022-12-31T02:35:47.018Z,82.58
2022-12-31T02:38:24.984Z,82.84
2022-12-31T02:40:54.025Z,83.04
2022-12-31T02:43:20.750Z,83.13
2022-12-31T02:46:30.920Z,83.32
2022-12-31T02:49:04.165Z,83.25
2022-12-31T02:51:48.525Z,83.37
2022-12-31T02:54:38.095Z,83.24
2022-12-31T02:57:21.597Z,83.34
2022-12-31T03:00:28.033Z,83.23
2022-12-31T03:02:55.935Z,83.09
2022-12-31T03:05:26.912Z,83.17
2022-12-31T03:07:54.273Z,83.26
2022-12-31T03:10:21.537Z,83.30
2022-12-31T03:12:49.348Z,83.45
2022-12-31T03:15:31.408Z,83.13
2022-12-31T03:18:01.050Z,83.18
2022-12-31T03:20:51.477Z,83.46
2022-12-31T03:23:25.413Z,83.23
2022-12-31T03:25:53.479Z,83.39
2022-12-31T03:28:23.794Z,83.36
2022-12-31T03:30:55.430Z,83.37
2022-12-31T03:33:23.215Z,83.39
2022-12-31T03:35:50.402Z,83.17
2022-12-31T03:38:18.671Z,83.28
2022-12-31T03:40:51.663Z,83.15
2022-12-31T03:43:19.682Z,83.32
2022-12-31T03:45:54.269Z,83.40
2022-12-31T03:48:23.355Z,83.05
2022-12-31T03:50:51.028Z,83.07
2022-12-31T03:53:18.291Z,83.07
2022-12-31T03:55:45.008Z,82.98
2022-12-31T03:58:11.717Z,82.87
2022-12-31T04:00:38.543Z,83.08
2022-12-31T04:03:06.307Z,83.01
2022-12-31T04:05:33.827Z,83.12
2022-12-31T04:08:00.566Z,83.02
2022-12-31T04:10:27.395Z,83.07
2022-12-31T04:12:54.205Z,82.89
2022-12-31T04:15:21.396Z,82.94
2022-12-31T04:17:48.498Z,83.11
2022-12-31T04:20:16.482Z,83.05
2022-12-31T04:22:44.123Z,83.25
2022-12-31T04:25:11.742Z,83.22
2022-12-31T04:27:40.850Z,82.91
2022-12-31T04:30:09.874Z,82.92
2022-12-31T04:32:36.655Z,82.82
2022-12-31T04:35:03.907Z,82.85
2022-12-31T04:37:30.668Z,82.74
2022-12-31T04:40:02.002Z,82.72
2022-12-31T04:42:32.443Z,82.60
2022-12-31T04:44:59.160Z,82.48
2022-12-31T04:47:25.848Z,82.60
2022-12-31T04:49:52.542Z,82.56
2022-12-31T04:52:19.274Z,82.35
2022-12-31T04:54:45.985Z,82.45
2022-12-31T04:57:12.784Z,82.33
2022-12-31T04:59:39.743Z,82.25
2022-12-31T05:02:06.620Z,82.62
2022-12-31T05:04:33.608Z,82.69
2022-12-31T05:07:00.323Z,82.45
2022-12-31T05:09:28.493Z,82.60
2022-12-31T05:11:55.318Z,82.71
2022-12-31T05:14:22.364Z,82.64
2022-12-31T05:16:49.225Z,82.63
2022-12-31T05:19:16.425Z,82.61
2022-12-31T05:21:43.340Z,82.39
2022-12-31T05:24:10.117Z,82.60
2022-12-31T05:26:36.838Z,82.59
2022-12-31T05:29:03.547Z,82.66
2022-12-31T05:31:30.273Z,82.58
2022-12-31T05:33:57.210Z,82.65
2022-12-31T05:36:23.964Z,82.49
2022-12-31T05:38:50.654Z,82.59
2022-12-31T05:41:17.467Z,82.82
2022-12-31T05:43:44.184Z,82.72
2022-12-31T05:46:10.941Z,82.92
2022-12-31T05:48:37.686Z,82.56
2022-12-31T05:51:04.584Z,82.81
2022-12-31T05:53:31.301Z,82.52
2022-12-31T05:55:57.995Z,82.75
2022-12-31T05:58:25.777Z,82.59
2022-12-31T06:00:52.786Z,82.71
2022-12-31T06:03:19.607Z,82.68
2022-12-31T06:05:46.378Z,82.57
2022-12-31T06:08:13.152Z,82.49
2022-12-31T06:10:40.716Z,82.87
2022-12-31T06:13:08.093Z,82.72
2022-12-31T06:15:39.847Z,82.71
2022-12-31T06:18:06.910Z,82.88
2022-12-31T06:20:36.425Z,82.66
2022-12-31T06:23:03.545Z,82.67
2022-12-31T06:25:30.290Z,82.48
2022-12-31T06:27:56.956Z,82.28
2022-12-31T06:30:23.677Z,82.67
2022-12-31T06:32:50.371Z,82.58
2022-12-31T06:35:18.153Z,82.86
2022-12-31T06:37:44.926Z,82.85
2022-12-31T06:40:12.110Z,82.96
2022-12-31T06:42:38.835Z,82.78
2022-12-31T06:45:06.594Z,82.81
2022-12-31T06:47:33.313Z,82.62
2022-12-31T06:50:00.062Z,82.70
2022-12-31T06:52:26.820Z,82.68
2022-12-31T06:54:53.897Z,82.73
2022-12-31T06:57:20.902Z,82.74
2022-12-31T06:59:48.016Z,82.90
2022-12-31T07:02:36.766Z,82.84
2022-12-31T07:05:21.561Z,82.93
2022-12-31T07:07:51.130Z,82.89
2022-12-31T07:11:07.689Z,83.12
2022-12-31T07:13:52.657Z,83.12
2022-12-31T07:16:47.339Z,83.12
2022-12-31T07:19:25.196Z,83.15
2022-12-31T07:21:55.544Z,82.98
2022-12-31T07:24:22.642Z,82.97
2022-12-31T07:27:01.605Z,82.87
2022-12-31T07:29:30.960Z,83.18
2022-12-31T07:32:19.502Z,83.15
2022-12-31T07:34:56.050Z,82.99
2022-12-31T07:37:29.651Z,83.07
2022-12-31T07:39:58.997Z,83.36
2022-12-31T07:43:05.133Z,83.03
2022-12-31T07:45:59.156Z,83.32
2022-12-31T07:48:28.132Z,82.96
2022-12-31T07:50:57.060Z,82.74
2022-12-31T07:53:25.277Z,82.63
2022-12-31T07:55:58.576Z,82.44
2022-12-31T07:58:40.847Z,82.41
2022-12-31T08:01:28.328Z,82.37
2022-12-31T08:04:17.454Z,82.53
2022-12-31T08:06:59.429Z,82.63
2022-12-31T08:09:33.705Z,82.64
2022-12-31T08:12:02.161Z,82.67
2022-12-31T08:14:29.935Z,82.84
2022-12-31T08:16:57.469Z,82.90
2022-12-31T08:19:24.959Z,82.89
2022-12-31T08:22:16.778Z,82.93
2022-12-31T08:25:04.618Z,82.64
2022-12-31T08:27:42.102Z,82.80
2022-12-31T08:30:21.363Z,82.72
2022-12-31T08:33:06.774Z,82.38
2022-12-31T08:35:36.303Z,83.01
2022-12-31T08:38:09.174Z,82.40
2022-12-31T08:41:13.901Z,82.31
2022-12-31T08:43:49.662Z,82.41
2022-12-31T08:46:34.593Z,82.51
2022-12-31T08:49:01.527Z,82.35
2022-12-31T08:51:28.522Z,82.26
2022-12-31T08:53:55.690Z,82.25
2022-12-31T08:56:29.038Z,82.32
2022-12-31T08:59:37.365Z,82.16
2022-12-31T09:02:10.241Z,82.50
2022-12-31T09:04:58.392Z,81.78
2022-12-31T09:07:37.480Z,82.18
2022-12-31T09:10:21.594Z,82.32
2022-12-31T09:13:06.431Z,82.25
2022-12-31T09:15:36.464Z,82.35
2022-12-31T09:18:03.595Z,82.70
2022-12-31T09:20:42.851Z,82.63
2022-12-31T09:23:11.648Z,82.16
2022-12-31T09:25:59.890Z,82.59
2022-12-31T09:28:26.668Z,83.13
2022-12-31T09:31:32.574Z,82.87
2022-12-31T09:34:34.562Z,82.54
2022-12-31T09:37:13.769Z,82.68
2022-12-31T09:39:43.678Z,82.77
2022-12-31T09:42:28.420Z,82.60
2022-12-31T09:45:13.628Z,82.59
2022-12-31T09:47:46.399Z,82.52
2022-12-31T09:50:19.531Z,82.43
2022-12-31T09:53:04.616Z,82.42
2022-12-31T09:55:45.597Z,82.23
2022-12-31T09:58:42.793Z,82.27
2022-12-31T10:01:36.249Z,82.20
2022-12-31T10:04:32.913Z,82.12
2022-12-31T10:07:43.142Z,82.03
2022-12-31T10:10:22.659Z,82.16
2022-12-31T10:13:28.642Z,82.02
2022-12-31T10:16:21.013Z,81.87
2022-12-31T10:19:12.498Z,81.67
2022-12-31T10:22:14.336Z,81.87
2022-12-31T10:25:18.948Z,82.20
2022-12-31T10:28:24.009Z,82.20
2022-12-31T10:31:15.733Z,82.47
2022-12-31T10:33:53.016Z,81.80
2022-12-31T10:36:31.838Z,81.72
2022-12-31T10:39:24.020Z,81.87
2022-12-31T10:42:06.663Z,82.15
2022-12-31T10:45:05.447Z,82.12
2022-12-31T10:47:47.474Z,81.58
2022-12-31T10:50:21.865Z,81.84
2022-12-31T10:53:09.852Z,82.01
2022-12-31T10:56:16.733Z,82.28
2022-12-31T10:59:21.343Z,82.13
2022-12-31T11:02:09.971Z,82.37
2022-12-31T11:04:58.933Z,81.97
2022-12-31T11:07:58.889Z,81.74
2022-12-31T11:10:40.733Z,81.80
2022-12-31T11:13:35.439Z,81.49
2022-12-31T11:16:30.248Z,81.80
2022-12-31T11:19:22.739Z,81.76
2022-12-31T11:22:04.490Z,81.50
2022-12-31T11:24:42.367Z,81.48
2022-12-31T11:27:37.036Z,81.33
2022-12-31T11:30:22.419Z,81.99
2022-12-31T11:33:07.354Z,81.60
2022-12-31T11:36:05.257Z,81.71
2022-12-31T11:38:44.756Z,81.54
2022-12-31T11:41:13.956Z,81.57
2022-12-31T11:44:02.003Z,81.68
2022-12-31T11:46:34.693Z,81.45
2022-12-31T11:49:22.941Z,80.96
2022-12-31T11:52:24.067Z,81.02
2022-12-31T11:55:23.488Z,80.98
2022-12-31T11:57:52.372Z,80.96
2022-12-31T12:00:20.896Z,80.71
2022-12-31T12:02:54.015Z,80.54
2022-12-31T12:05:23.796Z,80.37
2022-12-31T12:07:52.378Z,79.85
2022-12-31T12:10:23.221Z,80.30
2022-12-31T12:12:51.394Z,80.28
2022-12-31T12:15:23.072Z,80.08
2022-12-31T12:17:54.110Z,79.86
2022-12-31T12:20:40.969Z,79.89
2022-12-31T12:23:21.556Z,79.83
2022-12-31T12:25:48.222Z,79.78
2022-12-31T12:28:25.086Z,79.83
2022-12-31T12:30:58.935Z,79.88
2022-12-31T12:33:27.379Z,79.90
2022-12-31T12:35:54.088Z,79.91
2022-12-31T12:38:23.188Z,80.15
2022-12-31T12:41:02.519Z,80.32
2022-12-31T12:43:37.643Z,80.19
2022-12-31T12:46:18.588Z,79.95
2022-12-31T12:48:49.481Z,79.67
2022-12-31T12:51:31.614Z,79.63
2022-12-31T12:54:33.544Z,79.76
2022-12-31T12:57:06.163Z,79.41
2022-12-31T12:59:38.759Z,79.37
2022-12-31T13:02:50.371Z,79.73
2022-12-31T13:05:57.079Z,79.40
2022-12-31T13:08:52.250Z,79.35
2022-12-31T13:11:28.385Z,79.19
2022-12-31T13:14:34.369Z,79.39
2022-12-31T13:17:29.315Z,79.15
2022-12-31T13:20:10.897Z,79.26
2022-12-31T13:23:11.498Z,79.31
2022-12-31T13:26:17.328Z,78.90
2022-12-31T13:28:47.329Z,79.09
2022-12-31T13:31:27.821Z,79.07
2022-12-31T13:34:32.011Z,79.05
2022-12-31T13:37:05.664Z,78.83
2022-12-31T13:39:38.867Z,79.04
2022-12-31T13:42:30.342Z,78.70
2022-12-31T13:45:04.255Z,78.92
2022-12-31T13:47:40.853Z,79.05
2022-12-31T13:50:31.509Z,79.17
2022-12-31T13:52:58.162Z,78.85
2022-12-31T13:55:40.423Z,79.37
2022-12-31T13:58:36.630Z,78.80
2022-12-31T14:01:20.051Z,78.93
2022-12-31T14:04:08.350Z,78.83
2022-12-31T14:06:51.859Z,79.12
2022-12-31T14:09:31.547Z,78.83
2022-12-31T14:11:58.258Z,78.58
2022-12-31T14:14:37.153Z,79.02
2022-12-31T14:17:19.900Z,79.40
2022-12-31T14:20:26.364Z,79.49
2022-12-31T14:23:27.553Z,79.34
2022-12-31T14:26:02.225Z,79.58
2022-12-31T14:28:36.923Z,79.39
2022-12-31T14:31:23.061Z,79.47
2022-12-31T14:33:59.349Z,79.27
2022-12-31T14:36:30.641Z,79.45
2022-12-31T14:39:20.039Z,79.45
2022-12-31T14:42:03.532Z,79.41
2022-12-31T14:45:06.801Z,79.54
2022-12-31T14:47:53.428Z,79.49
2022-12-31T14:50:31.451Z,79.45
2022-12-31T14:53:04.130Z,79.50
2022-12-31T14:55:36.546Z,79.50
2022-12-31T14:58:29.293Z,79.41
2022-12-31T15:01:00.939Z,79.60
2022-12-31T15:03:30.624Z,79.44
2022-12-31T15:06:23.394Z,79.61
2022-12-31T15:09:08.211Z,79.91
2022-12-31T15:11:41.473Z,79.73
2022-12-31T15:14:37.460Z,79.84
2022-12-31T15:17:22.949Z,80.09
2022-12-31T15:20:20.670Z,80.03
2022-12-31T15:22:49.928Z,80.24
2022-12-31T15:25:41.270Z,80.09
2022-12-31T15:28:29.533Z,80.38
2022-12-31T15:31:20.046Z,80.68
2022-12-31T15:33:59.718Z,80.67
2022-12-31T15:36:33.087Z,80.91
2022-12-31T15:39:07.789Z,80.93
2022-12-31T15:41:46.162Z,81.11
2022-12-31T15:44:45.164Z,80.71
2022-12-31T15:47:21.070Z,80.85
2022-12-31T15:49:48.424Z,80.66
2022-12-31T15:52:22.408Z,80.82
2022-12-31T15:54:56.414Z,80.89
2022-12-31T15:57:40.739Z,81.13
2022-12-31T16:00:17.157Z,81.10
2022-12-31T16:02:45.446Z,81.06
2022-12-31T16:05:41.602Z,81.27
2022-12-31T16:08:19.550Z,81.67
2022-12-31T16:10:46.809Z,81.41
2022-12-31T16:13:22.867Z,81.66
2022-12-31T16:16:00.457Z,81.50
2022-12-31T16:18:39.987Z,81.35
2022-12-31T16:21:28.385Z,81.53
2022-12-31T16:24:04.206Z,81.33
2022-12-31T16:26:52.536Z,81.27
2022-12-31T16:29:22.245Z,81.57
2022-12-31T16:31:51.175Z,81.29
2022-12-31T16:34:23.429Z,81.37
2022-12-31T16:37:02.591Z,81.33
2022-12-31T16:39:37.069Z,81.83
2022-12-31T16:42:18.659Z,81.60
2022-12-31T16:44:46.920Z,81.89
2022-12-31T16:47:19.470Z,81.84
2022-12-31T16:49:50.812Z,81.52
2022-12-31T16:52:32.418Z,81.67
2022-12-31T16:54:59.467Z,81.75
2022-12-31T16:57:30.307Z,81.78
2022-12-31T17:00:04.262Z,81.61
2022-12-31T17:02:35.512Z,81.55
2022-12-31T17:05:02.657Z,81.71
2022-12-31T17:07:32.237Z,81.68
2022-12-31T17:10:08.026Z,81.91
2022-12-31T17:13:17.025Z,82.05
2022-12-31T17:15:41.746Z,82.15
2022-12-31T17:18:17.943Z,82.32
2022-12-31T17:20:44.908Z,82.10
2022-12-31T17:23:22.842Z,82.15
2022-12-31T17:25:49.620Z,82.34
2022-12-31T17:28:24.928Z,82.08
2022-12-31T17:30:52.436Z,82.10
2022-12-31T17:33:21.872Z,82.37
2022-12-31T17:35:55.141Z,82.28
2022-12-31T17:38:21.823Z,82.36
2022-12-31T17:41:06.785Z,82.18
2022-12-31T17:43:36.500Z,82.34
2022-12-31T17:46:11.023Z,82.20
2022-12-31T17:48:38.094Z,82.45
2022-12-31T17:51:05.077Z,82.48
2022-12-31T17:53:31.831Z,82.37
2022-12-31T17:56:02.890Z,82.35
2022-12-31T17:58:33.570Z,82.38
2022-12-31T18:01:02.106Z,82.77
2022-12-31T18:03:29.057Z,83.09
2022-12-31T18:05:55.915Z,82.63
2022-12-31T18:08:22.679Z,82.92
2022-12-31T18:10:51.277Z,83.03
2022-12-31T18:13:21.054Z,82.99
2022-12-31T18:15:47.791Z,82.90
2022-12-31T18:18:24.334Z,82.92
2022-12-31T18:20:58.969Z,82.74
2022-12-31T18:23:29.204Z,82.97
2022-12-31T18:25:56.018Z,82.57
2022-12-31T18:28:23.284Z,82.61
2022-12-31T18:30:50.236Z,82.47
2022-12-31T18:33:22.315Z,82.33
2022-12-31T18:36:09.875Z,82.48
2022-12-31T18:38:37.301Z,82.62
2022-12-31T18:41:04.503Z,82.52
2022-12-31T18:43:31.389Z,82.53
2022-12-31T18:45:58.530Z,82.46
2022-12-31T18:48:25.335Z,82.47
2022-12-31T18:50:52.176Z,82.78
2022-12-31T18:53:22.322Z,82.82
2022-12-31T18:55:54.913Z,82.71
2022-12-31T18:58:22.040Z,82.60
2022-12-31T19:00:50.689Z,82.52
2022-12-31T19:03:21.157Z,82.48
2022-12-31T19:05:50.756Z,82.50
2022-12-31T19:08:18.990Z,82.57
2022-12-31T19:10:46.698Z,82.66
2022-12-31T19:13:14.884Z,82.57
2022-12-31T19:15:50.655Z,82.31
2022-12-31T19:18:17.984Z,82.67
2022-12-31T19:20:45.282Z,82.52
2022-12-31T19:23:20.618Z,82.59
2022-12-31T19:25:48.915Z,82.56
2022-12-31T19:28:22.015Z,82.56
2022-12-31T19:30:48.736Z,82.89
2022-12-31T19:33:16.484Z,82.92
2022-12-31T19:35:44.119Z,82.78
2022-12-31T19:38:22.858Z,83.04
2022-12-31T19:40:50.852Z,83.01
2022-12-31T19:43:20.511Z,83.00
2022-12-31T19:45:47.783Z,83.41
2022-12-31T19:48:17.514Z,83.23
2022-12-31T19:50:50.188Z,83.37
2022-12-31T19:53:22.355Z,83.28
2022-12-31T19:55:50.169Z,83.12
2022-12-31T19:58:19.938Z,83.29
2022-12-31T20:00:55.595Z,82.97
2022-12-31T20:03:24.586Z,83.09
2022-12-31T20:05:51.344Z,82.89
2022-12-31T20:08:20.381Z,82.89
2022-12-31T20:10:47.179Z,82.80
2022-12-31T20:13:13.869Z,82.67
2022-12-31T20:15:47.635Z,82.93
2022-12-31T20:18:14.400Z,83.01
2022-12-31T20:20:49.250Z,83.37
2022-12-31T20:23:20.367Z,83.27
2022-12-31T20:25:59.758Z,83.25
2022-12-31T20:28:26.857Z,83.04
2022-12-31T20:30:53.943Z,83.53
2022-12-31T20:33:20.805Z,83.39
2022-12-31T20:35:47.530Z,83.27
2022-12-31T20:38:14.360Z,83.12
2022-12-31T20:40:46.436Z,83.00
2022-12-31T20:43:13.760Z,83.03
2022-12-31T20:45:41.573Z,83.10
2022-12-31T20:48:08.443Z,83.07
2022-12-31T20:50:35.389Z,83.26
2022-12-31T20:53:02.444Z,83.17
2022-12-31T20:55:30.799Z,83.24
2022-12-31T20:57:57.705Z,83.13
2022-12-31T21:00:24.575Z,83.41
2022-12-31T21:02:58.981Z,83.17
2022-12-31T21:05:31.072Z,83.15
2022-12-31T21:07:58.317Z,83.02
2022-12-31T21:10:25.188Z,82.78
2022-12-31T21:12:54.475Z,83.13
2022-12-31T21:15:21.772Z,83.07
2022-12-31T21:17:48.594Z,82.74
2022-12-31T21:20:15.357Z,82.98
2022-12-31T21:22:42.066Z,82.40
2022-12-31T21:25:10.565Z,82.78
2022-12-31T21:27:37.319Z,82.56
2022-12-31T21:30:21.010Z,82.60
2022-12-31T21:32:48.569Z,82.56
2022-12-31T21:35:42.357Z,82.51
2022-12-31T21:38:03.749Z,82.56
2022-12-31T21:40:31.512Z,82.59
2022-12-31T21:42:58.560Z,82.75
2022-12-31T21:45:25.835Z,82.62
2022-12-31T21:48:11.461Z,82.75
2022-12-31T21:50:38.171Z,82.44
2022-12-31T21:53:04.869Z,82.47
2022-12-31T21:55:50.438Z,82.43
2022-12-31T21:58:26.439Z,82.49
2022-12-31T22:01:13.441Z,82.65
2022-12-31T22:03:41.106Z,82.59
2022-12-31T22:06:12.552Z,82.34
2022-12-31T22:08:41.635Z,82.12
2022-12-31T22:11:09.488Z,82.23
2022-12-31T22:13:36.866Z,82.39
2022-12-31T22:16:05.770Z,82.44
2022-12-31T22:18:38.635Z,82.54
2022-12-31T22:21:05.858Z,82.68
2022-12-31T22:23:34.279Z,82.66
2022-12-31T22:26:01.811Z,82.49
2022-12-31T22:28:44.205Z,82.38
2022-12-31T22:31:16.208Z,82.51
2022-12-31T22:33:43.790Z,82.31
2022-12-31T22:36:12.758Z,82.24
2022-12-31T22:38:39.809Z,82.21
2022-12-31T22:41:11.189Z,82.43
2022-12-31T22:43:42.486Z,82.34
2022-12-31T22:46:14.314Z,82.39
2022-12-31T22:48:41.987Z,82.19
2022-12-31T22:51:10.291Z,82.65
2022-12-31T22:53:38.638Z,82.48
2022-12-31T22:56:06.263Z,82.63
2022-12-31T22:58:33.151Z,82.45
2022-12-31T23:01:00.270Z,82.60
2022-12-31T23:03:27.107Z,82.55
2022-12-31T23:05:53.947Z,82.34
2022-12-31T23:08:23.699Z,82.33
2022-12-31T23:11:06.153Z,82.46
2022-12-31T23:14:00.115Z,82.28
2022-12-31T23:16:47.668Z,82.54
2022-12-31T23:19:34.818Z,82.29
2022-12-31T23:22:20.375Z,82.39
2022-12-31T23:24:47.077Z,82.19
2022-12-31T23:27:13.870Z,82.25
2022-12-31T23:29:46.840Z,82.28
2022-12-31T23:32:18.020Z,82.07
2022-12-31T23:34:46.131Z,82.36
2022-12-31T23:37:13.987Z,82.01
2022-12-31T23:39:41.164Z,82.16
2022-12-31T23:42:07.922Z,82.24
2022-12-31T23:44:34.657Z,82.23
2022-12-31T23:47:01.406Z,82.18
2022-12-31T23:49:28.097Z,82.30
2022-12-31T23:51:54.791Z,82.53
2022-12-31T23:54:21.729Z,82.35
2022-12-31T23:56:48.437Z,82.21
2022-12-31T23:59:15.166Z,82.08
